sensor_id;sensor_type;location;lat;lon;timestamp;P1;durP1;ratioP1;P2;durP2;ratioP2
12725;SDS011;6427;49.754;6.106;2023-04-15T00:01:23;5.25;;;2.78;;
12725;SDS011;6427;49.754;6.106;2023-04-15T00:03:51;4.70;;;2.13;;
12725;SDS011;6427;49.754;6.106;2023-04-15T00:06:19;6.43;;;3.10;;
12725;SDS011;6427;49.754;6.106;2023-04-15T00:08:49;11.83;;;5.50;;
12725;SDS011;6427;49.754;6.106;2023-04-15T00:11:16;7.83;;;4.20;;
12725;SDS011;6427;49.754;6.106;2023-04-15T00:13:44;7.27;;;3.67;;
12725;SDS011;6427;49.754;6.106;2023-04-15T00:16:11;5.53;;;3.33;;
12725;SDS011;6427;49.754;6.106;2023-04-15T00:18:39;5.70;;;3.07;;
12725;SDS011;6427;49.754;6.106;2023-04-15T00:21:06;5.75;;;3.40;;
12725;SDS011;6427;49.754;6.106;2023-04-15T00:23:34;6.07;;;2.80;;
12725;SDS011;6427;49.754;6.106;2023-04-15T00:26:02;7.30;;;2.80;;
12725;SDS011;6427;49.754;6.106;2023-04-15T00:28:29;3.63;;;2.30;;
12725;SDS011;6427;49.754;6.106;2023-04-15T00:30:57;4.15;;;2.47;;
12725;SDS011;6427;49.754;6.106;2023-04-15T00:33:24;9.73;;;3.13;;
12725;SDS011;6427;49.754;6.106;2023-04-15T00:35:52;3.43;;;2.40;;
12725;SDS011;6427;49.754;6.106;2023-04-15T00:38:20;5.50;;;1.70;;
12725;SDS011;6427;49.754;6.106;2023-04-15T00:40:48;3.17;;;2.00;;
12725;SDS011;6427;49.754;6.106;2023-04-15T00:43:15;2.03;;;1.63;;
12725;SDS011;6427;49.754;6.106;2023-04-15T00:45:44;3.77;;;1.50;;
12725;SDS011;6427;49.754;6.106;2023-04-15T00:48:11;2.80;;;1.70;;
12725;SDS011;6427;49.754;6.106;2023-04-15T00:50:39;3.90;;;1.90;;
12725;SDS011;6427;49.754;6.106;2023-04-15T00:53:07;2.23;;;1.60;;
12725;SDS011;6427;49.754;6.106;2023-04-15T00:55:34;5.70;;;2.07;;
12725;SDS011;6427;49.754;6.106;2023-04-15T00:58:02;2.37;;;1.40;;
12725;SDS011;6427;49.754;6.106;2023-04-15T01:00:30;4.10;;;1.83;;
12725;SDS011;6427;49.754;6.106;2023-04-15T01:02:58;2.87;;;2.00;;
12725;SDS011;6427;49.754;6.106;2023-04-15T01:05:25;5.17;;;2.17;;
12725;SDS011;6427;49.754;6.106;2023-04-15T01:07:54;4.83;;;1.87;;
12725;SDS011;6427;49.754;6.106;2023-04-15T01:10:20;2.97;;;2.03;;
12725;SDS011;6427;49.754;6.106;2023-04-15T01:12:48;4.63;;;2.40;;
12725;SDS011;6427;49.754;6.106;2023-04-15T01:15:15;5.95;;;3.00;;
12725;SDS011;6427;49.754;6.106;2023-04-15T01:17:44;5.43;;;2.63;;
12725;SDS011;6427;49.754;6.106;2023-04-15T01:20:11;6.77;;;2.70;;
12725;SDS011;6427;49.754;6.106;2023-04-15T01:22:39;5.00;;;2.43;;
12725;SDS011;6427;49.754;6.106;2023-04-15T01:25:11;4.27;;;2.30;;
12725;SDS011;6427;49.754;6.106;2023-04-15T01:27:40;4.33;;;2.00;;
12725;SDS011;6427;49.754;6.106;2023-04-15T01:30:11;6.17;;;2.50;;
12725;SDS011;6427;49.754;6.106;2023-04-15T01:32:39;5.90;;;2.67;;
12725;SDS011;6427;49.754;6.106;2023-04-15T01:35:07;3.40;;;1.87;;
12725;SDS011;6427;49.754;6.106;2023-04-15T01:37:35;2.73;;;1.93;;
12725;SDS011;6427;49.754;6.106;2023-04-15T01:40:02;3.95;;;2.37;;
12725;SDS011;6427;49.754;6.106;2023-04-15T01:42:30;2.57;;;2.10;;
12725;SDS011;6427;49.754;6.106;2023-04-15T01:44:58;3.23;;;2.23;;
12725;SDS011;6427;49.754;6.106;2023-04-15T01:47:25;4.20;;;2.10;;
12725;SDS011;6427;49.754;6.106;2023-04-15T01:49:53;3.00;;;2.00;;
12725;SDS011;6427;49.754;6.106;2023-04-15T01:52:21;3.50;;;2.30;;
12725;SDS011;6427;49.754;6.106;2023-04-15T01:54:49;4.77;;;2.00;;
12725;SDS011;6427;49.754;6.106;2023-04-15T01:57:16;3.33;;;2.30;;
12725;SDS011;6427;49.754;6.106;2023-04-15T01:59:44;4.77;;;2.30;;
12725;SDS011;6427;49.754;6.106;2023-04-15T02:02:12;4.70;;;2.40;;
12725;SDS011;6427;49.754;6.106;2023-04-15T02:04:39;5.50;;;2.50;;
12725;SDS011;6427;49.754;6.106;2023-04-15T02:07:08;3.17;;;2.23;;
12725;SDS011;6427;49.754;6.106;2023-04-15T02:09:36;5.33;;;2.30;;
12725;SDS011;6427;49.754;6.106;2023-04-15T02:12:04;3.57;;;2.10;;
12725;SDS011;6427;49.754;6.106;2023-04-15T02:14:31;2.93;;;2.00;;
12725;SDS011;6427;49.754;6.106;2023-04-15T02:16:59;6.00;;;2.70;;
12725;SDS011;6427;49.754;6.106;2023-04-15T02:19:30;4.97;;;2.27;;
12725;SDS011;6427;49.754;6.106;2023-04-15T02:21:57;2.33;;;1.80;;
12725;SDS011;6427;49.754;6.106;2023-04-15T02:24:25;5.83;;;3.23;;
12725;SDS011;6427;49.754;6.106;2023-04-15T02:26:52;6.30;;;3.58;;
12725;SDS011;6427;49.754;6.106;2023-04-15T02:29:21;6.53;;;3.47;;
12725;SDS011;6427;49.754;6.106;2023-04-15T02:31:48;5.00;;;2.50;;
12725;SDS011;6427;49.754;6.106;2023-04-15T02:34:16;8.17;;;2.60;;
12725;SDS011;6427;49.754;6.106;2023-04-15T02:36:44;4.70;;;2.00;;
12725;SDS011;6427;49.754;6.106;2023-04-15T02:39:11;3.70;;;2.07;;
12725;SDS011;6427;49.754;6.106;2023-04-15T02:41:39;4.20;;;1.83;;
12725;SDS011;6427;49.754;6.106;2023-04-15T02:44:07;5.33;;;1.80;;
12725;SDS011;6427;49.754;6.106;2023-04-15T02:46:35;4.67;;;1.50;;
12725;SDS011;6427;49.754;6.106;2023-04-15T02:49:02;3.20;;;1.60;;
12725;SDS011;6427;49.754;6.106;2023-04-15T02:51:30;3.53;;;1.80;;
12725;SDS011;6427;49.754;6.106;2023-04-15T02:53:58;6.70;;;1.70;;
12725;SDS011;6427;49.754;6.106;2023-04-15T02:56:25;2.27;;;1.40;;
12725;SDS011;6427;49.754;6.106;2023-04-15T02:58:53;9.03;;;1.60;;
12725;SDS011;6427;49.754;6.106;2023-04-15T03:01:20;2.83;;;1.83;;
12725;SDS011;6427;49.754;6.106;2023-04-15T03:03:48;2.13;;;1.60;;
12725;SDS011;6427;49.754;6.106;2023-04-15T03:06:16;3.60;;;1.80;;
12725;SDS011;6427;49.754;6.106;2023-04-15T03:08:44;5.10;;;1.43;;
12725;SDS011;6427;49.754;6.106;2023-04-15T03:11:13;3.57;;;1.90;;
12725;SDS011;6427;49.754;6.106;2023-04-15T03:13:39;5.50;;;1.93;;
12725;SDS011;6427;49.754;6.106;2023-04-15T03:16:08;3.00;;;1.37;;
12725;SDS011;6427;49.754;6.106;2023-04-15T03:18:35;7.43;;;2.30;;
12725;SDS011;6427;49.754;6.106;2023-04-15T03:21:03;5.10;;;2.10;;
12725;SDS011;6427;49.754;6.106;2023-04-15T03:23:31;3.97;;;1.87;;
12725;SDS011;6427;49.754;6.106;2023-04-15T03:26:02;5.07;;;1.97;;
12725;SDS011;6427;49.754;6.106;2023-04-15T03:28:29;14.27;;;4.97;;
12725;SDS011;6427;49.754;6.106;2023-04-15T03:30:57;17.60;;;4.97;;
12725;SDS011;6427;49.754;6.106;2023-04-15T03:33:24;6.33;;;2.80;;
12725;SDS011;6427;49.754;6.106;2023-04-15T03:35:53;2.30;;;1.20;;
12725;SDS011;6427;49.754;6.106;2023-04-15T03:38:21;3.07;;;1.57;;
12725;SDS011;6427;49.754;6.106;2023-04-15T03:40:49;3.43;;;1.57;;
12725;SDS011;6427;49.754;6.106;2023-04-15T03:43:16;2.43;;;1.50;;
12725;SDS011;6427;49.754;6.106;2023-04-15T03:45:44;5.07;;;2.00;;
12725;SDS011;6427;49.754;6.106;2023-04-15T03:48:12;5.10;;;1.60;;
12725;SDS011;6427;49.754;6.106;2023-04-15T03:50:40;5.23;;;1.80;;
12725;SDS011;6427;49.754;6.106;2023-04-15T03:53:07;4.20;;;2.23;;
12725;SDS011;6427;49.754;6.106;2023-04-15T03:55:35;3.47;;;2.00;;
12725;SDS011;6427;49.754;6.106;2023-04-15T03:58:02;4.23;;;2.00;;
12725;SDS011;6427;49.754;6.106;2023-04-15T04:00:30;4.47;;;1.77;;
12725;SDS011;6427;49.754;6.106;2023-04-15T04:02:57;3.30;;;1.20;;
12725;SDS011;6427;49.754;6.106;2023-04-15T04:05:26;5.63;;;1.70;;
12725;SDS011;6427;49.754;6.106;2023-04-15T04:07:53;5.00;;;1.17;;
12725;SDS011;6427;49.754;6.106;2023-04-15T04:10:21;2.90;;;1.33;;
12725;SDS011;6427;49.754;6.106;2023-04-15T04:12:48;4.03;;;1.70;;
12725;SDS011;6427;49.754;6.106;2023-04-15T04:15:17;3.77;;;1.50;;
12725;SDS011;6427;49.754;6.106;2023-04-15T04:17:44;3.33;;;1.80;;
12725;SDS011;6427;49.754;6.106;2023-04-15T04:20:12;4.50;;;2.03;;
12725;SDS011;6427;49.754;6.106;2023-04-15T04:22:40;2.57;;;1.70;;
12725;SDS011;6427;49.754;6.106;2023-04-15T04:25:08;4.93;;;1.70;;
12725;SDS011;6427;49.754;6.106;2023-04-15T04:27:35;3.77;;;1.47;;
12725;SDS011;6427;49.754;6.106;2023-04-15T04:30:03;3.80;;;1.17;;
12725;SDS011;6427;49.754;6.106;2023-04-15T04:32:30;3.97;;;1.33;;
12725;SDS011;6427;49.754;6.106;2023-04-15T04:34:58;3.27;;;1.20;;
12725;SDS011;6427;49.754;6.106;2023-04-15T04:37:26;4.60;;;1.30;;
12725;SDS011;6427;49.754;6.106;2023-04-15T04:39:53;4.20;;;1.37;;
12725;SDS011;6427;49.754;6.106;2023-04-15T04:42:21;2.37;;;1.50;;
12725;SDS011;6427;49.754;6.106;2023-04-15T04:44:48;3.33;;;1.57;;
12725;SDS011;6427;49.754;6.106;2023-04-15T04:47:16;3.20;;;1.58;;
12725;SDS011;6427;49.754;6.106;2023-04-15T04:49:43;4.30;;;1.60;;
12725;SDS011;6427;49.754;6.106;2023-04-15T04:52:11;4.67;;;1.27;;
12725;SDS011;6427;49.754;6.106;2023-04-15T04:54:39;3.42;;;1.60;;
12725;SDS011;6427;49.754;6.106;2023-04-15T04:57:07;2.43;;;1.60;;
12725;SDS011;6427;49.754;6.106;2023-04-15T04:59:35;3.10;;;1.40;;
12725;SDS011;6427;49.754;6.106;2023-04-15T05:02:03;1.93;;;1.20;;
12725;SDS011;6427;49.754;6.106;2023-04-15T05:04:30;4.67;;;1.10;;
12725;SDS011;6427;49.754;6.106;2023-04-15T05:06:58;5.67;;;1.23;;
12725;SDS011;6427;49.754;6.106;2023-04-15T05:09:26;1.73;;;1.00;;
12725;SDS011;6427;49.754;6.106;2023-04-15T05:11:54;3.75;;;1.55;;
12725;SDS011;6427;49.754;6.106;2023-04-15T05:14:21;4.70;;;1.60;;
12725;SDS011;6427;49.754;6.106;2023-04-15T05:16:49;6.67;;;1.50;;
12725;SDS011;6427;49.754;6.106;2023-04-15T05:19:16;1.73;;;1.17;;
12725;SDS011;6427;49.754;6.106;2023-04-15T05:21:45;5.23;;;1.60;;
12725;SDS011;6427;49.754;6.106;2023-04-15T05:24:12;4.67;;;1.13;;
12725;SDS011;6427;49.754;6.106;2023-04-15T05:26:40;3.50;;;1.42;;
12725;SDS011;6427;49.754;6.106;2023-04-15T05:29:07;4.77;;;1.30;;
12725;SDS011;6427;49.754;6.106;2023-04-15T05:31:35;2.90;;;1.20;;
12725;SDS011;6427;49.754;6.106;2023-04-15T05:34:02;4.53;;;1.77;;
12725;SDS011;6427;49.754;6.106;2023-04-15T05:36:30;2.30;;;1.10;;
12725;SDS011;6427;49.754;6.106;2023-04-15T05:38:57;2.83;;;1.33;;
12725;SDS011;6427;49.754;6.106;2023-04-15T05:41:25;3.13;;;1.20;;
12725;SDS011;6427;49.754;6.106;2023-04-15T05:43:53;4.13;;;1.30;;
12725;SDS011;6427;49.754;6.106;2023-04-15T05:46:21;3.50;;;1.00;;
12725;SDS011;6427;49.754;6.106;2023-04-15T05:48:48;3.20;;;1.20;;
12725;SDS011;6427;49.754;6.106;2023-04-15T05:51:17;2.10;;;1.13;;
12725;SDS011;6427;49.754;6.106;2023-04-15T05:53:44;2.10;;;1.10;;
12725;SDS011;6427;49.754;6.106;2023-04-15T05:56:12;6.00;;;1.20;;
12725;SDS011;6427;49.754;6.106;2023-04-15T05:58:40;3.80;;;1.10;;
12725;SDS011;6427;49.754;6.106;2023-04-15T06:01:08;4.00;;;1.40;;
12725;SDS011;6427;49.754;6.106;2023-04-15T06:03:35;4.15;;;1.60;;
12725;SDS011;6427;49.754;6.106;2023-04-15T06:06:03;2.13;;;1.10;;
12725;SDS011;6427;49.754;6.106;2023-04-15T06:08:30;2.43;;;1.20;;
12725;SDS011;6427;49.754;6.106;2023-04-15T06:10:59;7.60;;;4.07;;
12725;SDS011;6427;49.754;6.106;2023-04-15T06:13:26;5.30;;;2.20;;
12725;SDS011;6427;49.754;6.106;2023-04-15T06:15:54;4.20;;;1.83;;
12725;SDS011;6427;49.754;6.106;2023-04-15T06:18:22;3.43;;;1.33;;
12725;SDS011;6427;49.754;6.106;2023-04-15T06:20:50;1.87;;;1.27;;
12725;SDS011;6427;49.754;6.106;2023-04-15T06:23:18;3.70;;;1.50;;
12725;SDS011;6427;49.754;6.106;2023-04-15T06:25:45;5.57;;;1.40;;
12725;SDS011;6427;49.754;6.106;2023-04-15T06:28:13;4.32;;;1.52;;
12725;SDS011;6427;49.754;6.106;2023-04-15T06:30:41;2.87;;;1.50;;
12725;SDS011;6427;49.754;6.106;2023-04-15T06:33:08;3.10;;;1.23;;
12725;SDS011;6427;49.754;6.106;2023-04-15T06:35:36;3.63;;;1.50;;
12725;SDS011;6427;49.754;6.106;2023-04-15T06:38:03;7.20;;;1.50;;
12725;SDS011;6427;49.754;6.106;2023-04-15T06:40:31;4.80;;;1.37;;
12725;SDS011;6427;49.754;6.106;2023-04-15T06:42:59;1.63;;;1.20;;
12725;SDS011;6427;49.754;6.106;2023-04-15T06:45:27;4.33;;;1.37;;
12725;SDS011;6427;49.754;6.106;2023-04-15T06:47:54;4.13;;;1.50;;
12725;SDS011;6427;49.754;6.106;2023-04-15T06:50:22;6.80;;;1.77;;
12725;SDS011;6427;49.754;6.106;2023-04-15T06:52:50;4.03;;;1.37;;
12725;SDS011;6427;49.754;6.106;2023-04-15T06:55:18;11.10;;;1.80;;
12725;SDS011;6427;49.754;6.106;2023-04-15T06:57:46;3.70;;;1.33;;
12725;SDS011;6427;49.754;6.106;2023-04-15T07:00:13;3.78;;;1.48;;
12725;SDS011;6427;49.754;6.106;2023-04-15T07:02:41;2.83;;;1.20;;
12725;SDS011;6427;49.754;6.106;2023-04-15T07:05:09;2.80;;;1.03;;
12725;SDS011;6427;49.754;6.106;2023-04-15T07:07:38;4.10;;;1.10;;
12725;SDS011;6427;49.754;6.106;2023-04-15T07:10:06;2.33;;;1.10;;
12725;SDS011;6427;49.754;6.106;2023-04-15T07:12:34;1.80;;;1.03;;
12725;SDS011;6427;49.754;6.106;2023-04-15T07:15:01;2.73;;;1.27;;
12725;SDS011;6427;49.754;6.106;2023-04-15T07:17:29;3.37;;;1.60;;
12725;SDS011;6427;49.754;6.106;2023-04-15T07:19:56;4.37;;;1.57;;
12725;SDS011;6427;49.754;6.106;2023-04-15T07:22:25;4.50;;;1.77;;
12725;SDS011;6427;49.754;6.106;2023-04-15T07:24:53;4.10;;;1.40;;
12725;SDS011;6427;49.754;6.106;2023-04-15T07:27:21;2.90;;;1.00;;
12725;SDS011;6427;49.754;6.106;2023-04-15T07:29:48;3.97;;;1.50;;
12725;SDS011;6427;49.754;6.106;2023-04-15T07:32:16;2.50;;;1.10;;
12725;SDS011;6427;49.754;6.106;2023-04-15T07:34:43;3.53;;;1.27;;
12725;SDS011;6427;49.754;6.106;2023-04-15T07:37:11;5.73;;;1.40;;
12725;SDS011;6427;49.754;6.106;2023-04-15T07:39:39;3.20;;;1.37;;
12725;SDS011;6427;49.754;6.106;2023-04-15T07:42:07;4.90;;;1.10;;
12725;SDS011;6427;49.754;6.106;2023-04-15T07:44:34;1.77;;;0.93;;
12725;SDS011;6427;49.754;6.106;2023-04-15T07:47:02;2.13;;;1.20;;
12725;SDS011;6427;49.754;6.106;2023-04-15T07:49:29;4.15;;;1.40;;
12725;SDS011;6427;49.754;6.106;2023-04-15T07:51:57;2.63;;;1.23;;
12725;SDS011;6427;49.754;6.106;2023-04-15T07:54:25;3.03;;;1.23;;
12725;SDS011;6427;49.754;6.106;2023-04-15T07:56:53;1.60;;;0.93;;
12725;SDS011;6427;49.754;6.106;2023-04-15T07:59:20;4.97;;;1.67;;
12725;SDS011;6427;49.754;6.106;2023-04-15T08:01:49;4.87;;;1.50;;
12725;SDS011;6427;49.754;6.106;2023-04-15T08:04:16;4.70;;;1.10;;
12725;SDS011;6427;49.754;6.106;2023-04-15T08:06:44;2.83;;;0.90;;
12725;SDS011;6427;49.754;6.106;2023-04-15T08:09:12;4.97;;;1.20;;
12725;SDS011;6427;49.754;6.106;2023-04-15T08:11:40;4.20;;;1.30;;
12725;SDS011;6427;49.754;6.106;2023-04-15T08:14:08;5.67;;;1.70;;
12725;SDS011;6427;49.754;6.106;2023-04-15T08:16:35;3.43;;;1.40;;
12725;SDS011;6427;49.754;6.106;2023-04-15T08:19:03;9.63;;;2.07;;
12725;SDS011;6427;49.754;6.106;2023-04-15T08:21:30;5.07;;;2.27;;
12725;SDS011;6427;49.754;6.106;2023-04-15T08:23:59;4.67;;;1.57;;
12725;SDS011;6427;49.754;6.106;2023-04-15T08:26:26;6.93;;;1.70;;
12725;SDS011;6427;49.754;6.106;2023-04-15T08:28:54;3.43;;;1.00;;
12725;SDS011;6427;49.754;6.106;2023-04-15T08:31:22;5.10;;;1.40;;
12725;SDS011;6427;49.754;6.106;2023-04-15T08:33:49;4.03;;;1.70;;
12725;SDS011;6427;49.754;6.106;2023-04-15T08:36:17;5.53;;;1.40;;
12725;SDS011;6427;49.754;6.106;2023-04-15T08:38:45;3.37;;;1.50;;
12725;SDS011;6427;49.754;6.106;2023-04-15T08:41:22;5.63;;;1.40;;
12725;SDS011;6427;49.754;6.106;2023-04-15T08:43:53;4.37;;;1.53;;
12725;SDS011;6427;49.754;6.106;2023-04-15T08:46:19;2.73;;;0.90;;
12725;SDS011;6427;49.754;6.106;2023-04-15T08:48:47;4.60;;;1.45;;
12725;SDS011;6427;49.754;6.106;2023-04-15T08:51:19;13.50;;;2.40;;
12725;SDS011;6427;49.754;6.106;2023-04-15T08:53:43;3.60;;;1.30;;
12725;SDS011;6427;49.754;6.106;2023-04-15T08:56:10;3.90;;;1.40;;
12725;SDS011;6427;49.754;6.106;2023-04-15T08:58:38;4.17;;;1.30;;
12725;SDS011;6427;49.754;6.106;2023-04-15T09:01:05;3.33;;;1.23;;
12725;SDS011;6427;49.754;6.106;2023-04-15T09:03:34;5.63;;;1.40;;
12725;SDS011;6427;49.754;6.106;2023-04-15T09:06:03;3.80;;;1.37;;
12725;SDS011;6427;49.754;6.106;2023-04-15T09:08:29;4.23;;;1.50;;
12725;SDS011;6427;49.754;6.106;2023-04-15T09:10:56;4.57;;;1.03;;
12725;SDS011;6427;49.754;6.106;2023-04-15T09:13:24;5.00;;;1.37;;
12725;SDS011;6427;49.754;6.106;2023-04-15T09:15:52;3.23;;;0.90;;
12725;SDS011;6427;49.754;6.106;2023-04-15T09:18:26;4.50;;;1.20;;
12725;SDS011;6427;49.754;6.106;2023-04-15T09:20:53;4.33;;;1.13;;
12725;SDS011;6427;49.754;6.106;2023-04-15T09:23:22;8.07;;;1.67;;
12725;SDS011;6427;49.754;6.106;2023-04-15T09:25:50;4.03;;;1.23;;
12725;SDS011;6427;49.754;6.106;2023-04-15T09:28:22;9.63;;;1.80;;
12725;SDS011;6427;49.754;6.106;2023-04-15T09:30:45;4.20;;;1.37;;
12725;SDS011;6427;49.754;6.106;2023-04-15T09:33:13;2.47;;;1.10;;
12725;SDS011;6427;49.754;6.106;2023-04-15T09:35:40;8.17;;;2.80;;
12725;SDS011;6427;49.754;6.106;2023-04-15T09:38:08;4.07;;;1.10;;
12725;SDS011;6427;49.754;6.106;2023-04-15T09:40:40;3.83;;;1.00;;
12725;SDS011;6427;49.754;6.106;2023-04-15T09:43:04;2.57;;;0.80;;
12725;SDS011;6427;49.754;6.106;2023-04-15T09:45:31;3.27;;;0.70;;
12725;SDS011;6427;49.754;6.106;2023-04-15T09:48:13;2.07;;;0.77;;
12725;SDS011;6427;49.754;6.106;2023-04-15T09:50:42;2.53;;;0.80;;
12725;SDS011;6427;49.754;6.106;2023-04-15T09:53:09;2.73;;;0.67;;
12725;SDS011;6427;49.754;6.106;2023-04-15T09:55:42;3.13;;;0.97;;
12725;SDS011;6427;49.754;6.106;2023-04-15T09:58:08;2.37;;;0.67;;
12725;SDS011;6427;49.754;6.106;2023-04-15T10:00:35;2.10;;;0.70;;
12725;SDS011;6427;49.754;6.106;2023-04-15T10:03:04;3.47;;;0.70;;
12725;SDS011;6427;49.754;6.106;2023-04-15T10:05:30;3.93;;;0.90;;
12725;SDS011;6427;49.754;6.106;2023-04-15T10:07:59;5.50;;;1.00;;
12725;SDS011;6427;49.754;6.106;2023-04-15T10:10:26;4.43;;;1.20;;
12725;SDS011;6427;49.754;6.106;2023-04-15T10:12:54;3.13;;;0.80;;
12725;SDS011;6427;49.754;6.106;2023-04-15T10:15:22;4.20;;;0.90;;
12725;SDS011;6427;49.754;6.106;2023-04-15T10:17:50;3.33;;;1.10;;
12725;SDS011;6427;49.754;6.106;2023-04-15T10:20:17;3.07;;;1.00;;
12725;SDS011;6427;49.754;6.106;2023-04-15T10:22:45;4.50;;;1.10;;
12725;SDS011;6427;49.754;6.106;2023-04-15T10:25:16;3.43;;;0.90;;
12725;SDS011;6427;49.754;6.106;2023-04-15T10:27:44;2.97;;;0.80;;
12725;SDS011;6427;49.754;6.106;2023-04-15T10:30:16;2.47;;;1.03;;
12725;SDS011;6427;49.754;6.106;2023-04-15T10:32:47;2.10;;;0.63;;
12725;SDS011;6427;49.754;6.106;2023-04-15T10:35:32;3.33;;;0.70;;
12725;SDS011;6427;49.754;6.106;2023-04-15T10:38:02;1.63;;;0.80;;
12725;SDS011;6427;49.754;6.106;2023-04-15T10:40:30;3.73;;;0.67;;
12725;SDS011;6427;49.754;6.106;2023-04-15T10:42:58;2.00;;;0.60;;
12725;SDS011;6427;49.754;6.106;2023-04-15T10:45:43;2.80;;;0.93;;
12725;SDS011;6427;49.754;6.106;2023-04-15T10:48:14;1.50;;;0.80;;
12725;SDS011;6427;49.754;6.106;2023-04-15T10:50:47;5.27;;;0.90;;
12725;SDS011;6427;49.754;6.106;2023-04-15T10:53:10;5.10;;;1.10;;
12725;SDS011;6427;49.754;6.106;2023-04-15T10:55:41;3.55;;;1.00;;
12725;SDS011;6427;49.754;6.106;2023-04-15T10:58:11;3.47;;;0.63;;
12725;SDS011;6427;49.754;6.106;2023-04-15T11:00:40;5.03;;;1.10;;
12725;SDS011;6427;49.754;6.106;2023-04-15T11:03:10;4.70;;;0.90;;
12725;SDS011;6427;49.754;6.106;2023-04-15T11:08:09;1.97;;;0.77;;
12725;SDS011;6427;49.754;6.106;2023-04-15T11:15:47;2.97;;;0.80;;
12725;SDS011;6427;49.754;6.106;2023-04-15T11:18:16;2.97;;;1.13;;
12725;SDS011;6427;49.754;6.106;2023-04-15T11:20:43;4.33;;;1.10;;
12725;SDS011;6427;49.754;6.106;2023-04-15T11:23:15;2.80;;;0.97;;
12725;SDS011;6427;49.754;6.106;2023-04-15T11:25:59;2.60;;;0.90;;
12725;SDS011;6427;49.754;6.106;2023-04-15T11:28:23;2.60;;;0.93;;
12725;SDS011;6427;49.754;6.106;2023-04-15T11:30:57;2.97;;;0.80;;
12725;SDS011;6427;49.754;6.106;2023-04-15T11:33:30;4.10;;;0.83;;
12725;SDS011;6427;49.754;6.106;2023-04-15T11:35:55;3.60;;;1.07;;
12725;SDS011;6427;49.754;6.106;2023-04-15T11:38:26;4.13;;;0.83;;
12725;SDS011;6427;49.754;6.106;2023-04-15T11:40:55;1.00;;;0.73;;
12725;SDS011;6427;49.754;6.106;2023-04-15T11:43:24;3.73;;;1.20;;
12725;SDS011;6427;49.754;6.106;2023-04-15T11:45:59;3.30;;;1.50;;
12725;SDS011;6427;49.754;6.106;2023-04-15T11:48:30;3.00;;;1.03;;
12725;SDS011;6427;49.754;6.106;2023-04-15T11:51:00;3.55;;;1.12;;
12725;SDS011;6427;49.754;6.106;2023-04-15T11:53:48;2.30;;;1.30;;
12725;SDS011;6427;49.754;6.106;2023-04-15T11:56:20;2.80;;;1.10;;
12725;SDS011;6427;49.754;6.106;2023-04-15T11:58:51;4.17;;;1.60;;
12725;SDS011;6427;49.754;6.106;2023-04-15T12:01:22;2.23;;;1.03;;
12725;SDS011;6427;49.754;6.106;2023-04-15T12:03:47;3.43;;;1.00;;
12725;SDS011;6427;49.754;6.106;2023-04-15T12:06:30;2.10;;;1.47;;
12725;SDS011;6427;49.754;6.106;2023-04-15T12:11:30;4.83;;;1.63;;
12725;SDS011;6427;49.754;6.106;2023-04-15T12:13:59;4.13;;;1.50;;
12725;SDS011;6427;49.754;6.106;2023-04-15T12:16:28;3.78;;;1.50;;
12725;SDS011;6427;49.754;6.106;2023-04-15T12:18:57;4.30;;;1.70;;
12725;SDS011;6427;49.754;6.106;2023-04-15T12:21:32;3.47;;;1.50;;
12725;SDS011;6427;49.754;6.106;2023-04-15T12:23:56;3.27;;;1.30;;
12725;SDS011;6427;49.754;6.106;2023-04-15T12:26:33;4.93;;;1.77;;
12725;SDS011;6427;49.754;6.106;2023-04-15T12:29:07;4.40;;;2.17;;
12725;SDS011;6427;49.754;6.106;2023-04-15T12:31:36;3.67;;;1.67;;
12725;SDS011;6427;49.754;6.106;2023-04-15T12:34:07;6.13;;;2.30;;
12725;SDS011;6427;49.754;6.106;2023-04-15T12:36:37;2.37;;;1.40;;
12725;SDS011;6427;49.754;6.106;2023-04-15T12:39:05;5.70;;;1.50;;
12725;SDS011;6427;49.754;6.106;2023-04-15T12:41:35;2.47;;;1.30;;
12725;SDS011;6427;49.754;6.106;2023-04-15T12:44:04;4.20;;;1.30;;
12725;SDS011;6427;49.754;6.106;2023-04-15T12:46:35;3.53;;;1.40;;
12725;SDS011;6427;49.754;6.106;2023-04-15T12:49:09;7.37;;;2.73;;
12725;SDS011;6427;49.754;6.106;2023-04-15T12:51:39;4.43;;;0.90;;
12725;SDS011;6427;49.754;6.106;2023-04-15T12:54:14;4.40;;;1.93;;
12725;SDS011;6427;49.754;6.106;2023-04-15T12:56:37;15.83;;;2.43;;
12725;SDS011;6427;49.754;6.106;2023-04-15T12:59:05;4.30;;;1.30;;
12725;SDS011;6427;49.754;6.106;2023-04-15T13:01:34;3.93;;;1.80;;
12725;SDS011;6427;49.754;6.106;2023-04-15T13:04:02;6.57;;;2.85;;
12725;SDS011;6427;49.754;6.106;2023-04-15T13:06:33;4.55;;;2.37;;
12725;SDS011;6427;49.754;6.106;2023-04-15T13:09:07;5.37;;;2.60;;
12725;SDS011;6427;49.754;6.106;2023-04-15T13:11:38;4.70;;;2.37;;
12725;SDS011;6427;49.754;6.106;2023-04-15T13:14:10;3.67;;;2.00;;
12725;SDS011;6427;49.754;6.106;2023-04-15T13:16:42;3.20;;;1.90;;
12725;SDS011;6427;49.754;6.106;2023-04-15T13:19:12;4.43;;;2.20;;
12725;SDS011;6427;49.754;6.106;2023-04-15T13:21:40;4.00;;;1.80;;
12725;SDS011;6427;49.754;6.106;2023-04-15T13:24:09;2.37;;;1.47;;
12725;SDS011;6427;49.754;6.106;2023-04-15T13:26:37;3.57;;;2.03;;
12725;SDS011;6427;49.754;6.106;2023-04-15T13:29:11;3.60;;;1.70;;
12725;SDS011;6427;49.754;6.106;2023-04-15T13:31:44;4.25;;;2.10;;
12725;SDS011;6427;49.754;6.106;2023-04-15T13:34:09;3.72;;;1.80;;
12725;SDS011;6427;49.754;6.106;2023-04-15T13:36:39;3.50;;;2.50;;
12725;SDS011;6427;49.754;6.106;2023-04-15T13:39:19;4.03;;;1.80;;
12725;SDS011;6427;49.754;6.106;2023-04-15T13:41:43;4.70;;;2.27;;
12725;SDS011;6427;49.754;6.106;2023-04-15T13:44:15;4.07;;;2.73;;
12725;SDS011;6427;49.754;6.106;2023-04-15T13:46:43;2.33;;;1.17;;
12725;SDS011;6427;49.754;6.106;2023-04-15T13:49:17;4.07;;;1.17;;
12725;SDS011;6427;49.754;6.106;2023-04-15T13:51:42;1.67;;;0.80;;
12725;SDS011;6427;49.754;6.106;2023-04-15T13:54:12;1.13;;;0.90;;
12725;SDS011;6427;49.754;6.106;2023-04-15T13:56:42;0.87;;;0.60;;
12725;SDS011;6427;49.754;6.106;2023-04-15T13:59:17;1.07;;;0.70;;
12725;SDS011;6427;49.754;6.106;2023-04-15T14:01:56;1.50;;;0.90;;
12725;SDS011;6427;49.754;6.106;2023-04-15T14:04:30;1.90;;;0.93;;
12725;SDS011;6427;49.754;6.106;2023-04-15T14:09:27;1.27;;;0.90;;
12725;SDS011;6427;49.754;6.106;2023-04-15T14:12:01;1.20;;;0.70;;
12725;SDS011;6427;49.754;6.106;2023-04-15T14:14:33;2.00;;;0.90;;
12725;SDS011;6427;49.754;6.106;2023-04-15T14:16:59;1.00;;;0.80;;
12725;SDS011;6427;49.754;6.106;2023-04-15T14:19:29;1.77;;;1.10;;
12725;SDS011;6427;49.754;6.106;2023-04-15T14:21:56;1.57;;;1.17;;
12725;SDS011;6427;49.754;6.106;2023-04-15T14:24:23;1.80;;;0.80;;
12725;SDS011;6427;49.754;6.106;2023-04-15T14:26:52;1.67;;;0.50;;
12725;SDS011;6427;49.754;6.106;2023-04-15T14:29:20;2.77;;;0.80;;
12725;SDS011;6427;49.754;6.106;2023-04-15T14:31:50;3.43;;;0.40;;
12725;SDS011;6427;49.754;6.106;2023-04-15T14:34:23;1.70;;;0.80;;
12725;SDS011;6427;49.754;6.106;2023-04-15T14:36:58;1.30;;;0.50;;
12725;SDS011;6427;49.754;6.106;2023-04-15T14:39:28;1.23;;;0.90;;
12725;SDS011;6427;49.754;6.106;2023-04-15T14:41:58;0.70;;;0.70;;
12725;SDS011;6427;49.754;6.106;2023-04-15T14:44:31;0.80;;;0.47;;
12725;SDS011;6427;49.754;6.106;2023-04-15T14:47:04;1.83;;;0.30;;
12725;SDS011;6427;49.754;6.106;2023-04-15T14:49:41;0.50;;;0.40;;
12725;SDS011;6427;49.754;6.106;2023-04-15T14:52:13;1.13;;;0.40;;
12725;SDS011;6427;49.754;6.106;2023-04-15T14:54:41;0.50;;;0.40;;
12725;SDS011;6427;49.754;6.106;2023-04-15T14:57:11;1.23;;;0.47;;
12725;SDS011;6427;49.754;6.106;2023-04-15T14:59:40;4.13;;;0.70;;
12725;SDS011;6427;49.754;6.106;2023-04-15T15:02:08;1.10;;;0.50;;
12725;SDS011;6427;49.754;6.106;2023-04-15T15:04:36;1.13;;;0.80;;
12725;SDS011;6427;49.754;6.106;2023-04-15T15:07:04;4.83;;;0.60;;
12725;SDS011;6427;49.754;6.106;2023-04-15T15:09:35;1.77;;;1.30;;
12725;SDS011;6427;49.754;6.106;2023-04-15T15:12:07;1.23;;;0.67;;
12725;SDS011;6427;49.754;6.106;2023-04-15T15:14:37;1.63;;;1.10;;
12725;SDS011;6427;49.754;6.106;2023-04-15T15:17:05;2.33;;;0.80;;
12725;SDS011;6427;49.754;6.106;2023-04-15T15:19:35;4.40;;;1.63;;
12725;SDS011;6427;49.754;6.106;2023-04-15T15:22:02;1.17;;;0.83;;